Airfield :
LOGIN :

Register | Disclaimer

   EN    FR    IT 

 










Legend :    VFR   Marginal VFR   IFR   Intensive IFR   Very Intensive IFR
Visi :
Ceiling :
>= 8 km
>= 3000ft
5 to 8 km
1000 to 3000 ft
1500m to 5 km
500 to 1000 ft
800 to 1500m
200 to 500 ft
< 800m
< 200 ft
Symbols :   Thunderstorms  Fog  Heavy snow  Heavy precipitations  Wind > 20 kt
SIGMETs :     Misc.  Thunderstorms  Icing  Turbulence  Mountain Waves  Volcanic Ashes







- Airport Elevation : 2595 ft
- IATA code : SLM


LESA - Salamanca Matacan

CURRENT METAR :
  • 241700Z 04011KT 350V090 CAVOK 22/01 Q1017

EXPIRED METARs :
  • 241630Z 05014KT 020V090 CAVOK 21/02 Q1017
  • 241600Z 06013KT 030V090 CAVOK 22/02 Q1017
  • 241530Z 05011KT 350V110 CAVOK 21/03 Q1017
  • 241500Z 04008KT 350V110 CAVOK 22/04 Q1018

TAF TAF LESA
Valid from the 24 at 18:00 until the 25 at 18:00 UTC


241700Z 2418/2518 05010KT CAVOK TX22/2515Z TN07/2506Z
PROB40
TEMPO 2418/2421 03015G25KT
TEMPO 2512/2518 06015G25KT
No reported NOTAMs for that airfield.
2 SIGMETs reported for the Madrid FIR (LECM) :
 
Embedded thunderstorms
LECM SIGMET 11 VALID 241636/241900 LEVA
LECM MADRID FIR/UIR EMBD TS FCST WI N4047 W00245 - N4030 W00053 - N3724 W00146 - N3734 W00306 - N4047 W00245 TOP FL380 MOV S NC=
Embedded thunderstorms
LECM SIGMET 10 VALID 241442/241700 LEVA
LECM MADRID FIR/UIR EMBD TS FCST WI N4140 W00234 - N4115 W00034 - N3753 W00136 - N3814 W00338 - N4140 W00234 TOP FL380 MOV S NC=



MET'MAP, your aeronautical weather chart ! - Copyright ORBIFLY December 2007 - Disclaimer

ORBIFLY MET'MAP TEAM :

Programming & Development : Alexandra Zaïnal
Concept & Development : Baudouin d'Aumeries
Co-Development & Prog : Marc-Olivier Méhu
Technical & hardware support : Manuel Goepfert

Contact : metmap@orbifly.com




SOURCES & CREDITS :

   NOAA